createdAt,value
2023-01-13T00:00:45.003Z,994.5
2023-01-13T00:02:01.285Z,994.4
2023-01-13T00:03:17.568Z,994.4
2023-01-13T00:04:33.863Z,994.3
2023-01-13T00:05:50.166Z,994.3
2023-01-13T00:07:06.446Z,994.3
2023-01-13T00:08:22.739Z,994.3
2023-01-13T00:09:39.064Z,994.3
2023-01-13T00:10:55.326Z,994.3
2023-01-13T00:12:11.635Z,994.3
2023-01-13T00:13:27.921Z,994.3
2023-01-13T00:14:44.222Z,994.3
2023-01-13T00:16:00.532Z,994.3
2023-01-13T00:17:15.819Z,994.3
2023-01-13T00:19:48.414Z,994.2
2023-01-13T00:21:04.724Z,994.3
2023-01-13T00:22:20.989Z,994.3
2023-01-13T00:23:37.315Z,994.3
2023-01-13T00:24:52.600Z,994.3
2023-01-13T00:26:08.894Z,994.2
2023-01-13T00:27:25.188Z,994.2
2023-01-13T00:28:41.512Z,994.3
2023-01-13T00:29:57.811Z,994.3
2023-01-13T00:31:14.067Z,994.3
2023-01-13T00:32:30.394Z,994.3
2023-01-13T00:33:46.696Z,994.2
2023-01-13T00:35:02.968Z,994.2
2023-01-13T00:36:19.261Z,994.2
2023-01-13T00:37:35.546Z,994.2
2023-01-13T00:38:51.858Z,994.2
2023-01-13T00:40:08.124Z,994.2
2023-01-13T00:41:23.472Z,994.2
2023-01-13T00:42:39.741Z,994.2
2023-01-13T00:43:56.042Z,994.2
2023-01-13T00:45:12.326Z,994.1
2023-01-13T00:46:28.616Z,994.1
2023-01-13T00:47:44.908Z,994.1
2023-01-13T00:49:01.202Z,994.2
2023-01-13T00:50:17.500Z,994.2
2023-01-13T00:52:50.088Z,994.1
2023-01-13T00:54:06.388Z,994.1
2023-01-13T00:55:22.671Z,994.1
2023-01-13T00:56:38.969Z,994.1
2023-01-13T00:57:54.285Z,994.2
2023-01-13T00:59:10.577Z,994.1
2023-01-13T01:00:26.863Z,994.1
2023-01-13T01:01:43.155Z,994.1
2023-01-13T01:02:59.453Z,994
2023-01-13T01:04:15.740Z,994.1
2023-01-13T01:05:32.043Z,994
2023-01-13T01:06:48.356Z,994.1
2023-01-13T01:08:04.624Z,994.1
2023-01-13T01:09:20.922Z,994.1
2023-01-13T01:10:37.215Z,994.1
2023-01-13T01:11:53.518Z,994.1
2023-01-13T01:13:09.833Z,994.1
2023-01-13T01:14:25.147Z,994.1
2023-01-13T01:15:41.429Z,994.1
2023-01-13T01:16:57.704Z,994.1
2023-01-13T01:18:14.006Z,994.2
2023-01-13T01:19:30.315Z,994.1
2023-01-13T01:20:46.581Z,994.1
2023-01-13T01:22:02.870Z,994.1
2023-01-13T01:23:19.181Z,994.1
2023-01-13T01:24:35.460Z,994.1
2023-01-13T01:25:51.760Z,994.2
2023-01-13T01:27:08.055Z,994.2
2023-01-13T01:28:24.351Z,994.2
2023-01-13T01:29:40.636Z,994.1
2023-01-13T01:30:55.948Z,994.1
2023-01-13T01:32:12.253Z,994.1
2023-01-13T01:33:28.532Z,994.1
2023-01-13T01:34:44.843Z,994
2023-01-13T01:36:01.126Z,994
2023-01-13T01:37:17.444Z,994
2023-01-13T01:38:33.713Z,994
2023-01-13T01:39:50.044Z,993.9
2023-01-13T01:41:06.326Z,994
2023-01-13T01:42:22.597Z,993.9
2023-01-13T01:43:38.884Z,993.9
2023-01-13T01:44:55.181Z,993.8
2023-01-13T01:46:11.471Z,993.8
2023-01-13T01:47:26.823Z,993.8
2023-01-13T01:48:43.096Z,993.7
2023-01-13T01:49:59.374Z,993.8
2023-01-13T01:51:15.672Z,993.8
2023-01-13T01:52:31.959Z,993.7
2023-01-13T01:53:48.263Z,993.7
2023-01-13T01:55:04.552Z,993.8
2023-01-13T01:56:20.843Z,993.7
2023-01-13T01:57:37.173Z,993.7
2023-01-13T01:58:53.443Z,993.6
2023-01-13T02:00:09.759Z,993.7
2023-01-13T02:01:26.045Z,993.7
2023-01-13T02:02:42.342Z,993.7
2023-01-13T02:03:57.625Z,993.6
2023-01-13T02:05:13.922Z,993.6
2023-01-13T02:06:30.224Z,993.7
2023-01-13T02:07:46.507Z,993.7
2023-01-13T02:09:02.823Z,993.7
2023-01-13T02:10:19.119Z,993.7
2023-01-13T02:11:35.393Z,993.6
2023-01-13T02:12:51.704Z,993.6
2023-01-13T02:14:07.976Z,993.6
2023-01-13T02:15:24.309Z,993.7
2023-01-13T02:16:40.586Z,993.5
2023-01-13T02:17:56.897Z,993.5
2023-01-13T02:19:13.158Z,993.5
2023-01-13T02:20:28.458Z,993.5
2023-01-13T02:21:44.764Z,993.6
2023-01-13T02:23:01.060Z,993.6
2023-01-13T02:24:17.370Z,993.5
2023-01-13T02:25:33.646Z,993.5
2023-01-13T02:26:49.931Z,993.5
2023-01-13T02:28:06.221Z,993.6
2023-01-13T02:29:22.532Z,993.5
2023-01-13T02:30:38.844Z,993.6
2023-01-13T02:31:55.113Z,993.6
2023-01-13T02:33:11.400Z,993.6
2023-01-13T02:34:27.694Z,993.6
2023-01-13T02:35:44.023Z,993.6
2023-01-13T02:36:59.310Z,993.6
2023-01-13T02:38:15.588Z,993.5
2023-01-13T02:39:31.886Z,993.6
2023-01-13T02:40:48.182Z,993.6
2023-01-13T02:42:04.481Z,993.5
2023-01-13T02:43:20.768Z,993.5
2023-01-13T02:44:37.058Z,993.4
2023-01-13T02:45:53.367Z,993.4
2023-01-13T02:47:09.678Z,993.4
2023-01-13T02:48:25.969Z,993.5
2023-01-13T02:49:42.233Z,993.5
2023-01-13T02:50:58.527Z,993.4
2023-01-13T02:52:14.850Z,993.4
2023-01-13T02:53:30.157Z,993.4
2023-01-13T02:54:46.437Z,993.3
2023-01-13T02:56:02.732Z,993.3
2023-01-13T02:57:19.041Z,993.2
2023-01-13T02:58:35.333Z,993.3
2023-01-13T02:59:51.606Z,993.3
2023-01-13T03:01:07.893Z,993.3
2023-01-13T03:02:24.198Z,993.2
2023-01-13T03:03:40.482Z,993.3
2023-01-13T03:04:56.786Z,993.2
2023-01-13T03:06:13.096Z,993.2
2023-01-13T03:07:29.361Z,993.2
2023-01-13T03:08:45.660Z,993.3
2023-01-13T03:10:00.976Z,993.2
2023-01-13T03:11:17.300Z,993.2
2023-01-13T03:12:33.589Z,993.1
2023-01-13T03:13:49.845Z,993.2
2023-01-13T03:15:06.145Z,993.2
2023-01-13T03:16:22.441Z,993.1
2023-01-13T03:17:38.729Z,993.1
2023-01-13T03:18:55.023Z,993.1
2023-01-13T03:20:11.316Z,993.1
2023-01-13T03:21:27.614Z,993.1
2023-01-13T03:22:43.936Z,993.1
2023-01-13T03:24:00.227Z,993
2023-01-13T03:25:16.507Z,993.1
2023-01-13T03:26:31.803Z,992.9
2023-01-13T03:27:48.106Z,993
2023-01-13T03:29:04.401Z,993.1
2023-01-13T03:30:20.681Z,993.1
2023-01-13T03:31:36.976Z,993
2023-01-13T03:32:53.278Z,993.1
2023-01-13T03:34:09.597Z,993
2023-01-13T03:35:25.899Z,992.9
2023-01-13T03:36:42.154Z,993
2023-01-13T03:37:58.457Z,993
2023-01-13T03:39:14.740Z,992.9
2023-01-13T03:40:31.071Z,992.9
2023-01-13T03:41:47.343Z,992.9
2023-01-13T03:43:03.622Z,992.9
2023-01-13T03:44:18.962Z,992.8
2023-01-13T03:45:35.267Z,992.7
2023-01-13T03:46:51.521Z,992.8
2023-01-13T03:48:07.813Z,992.8
2023-01-13T03:49:24.123Z,992.9
2023-01-13T03:50:40.400Z,992.8
2023-01-13T03:51:56.736Z,992.9
2023-01-13T03:53:12.995Z,993
2023-01-13T03:54:29.319Z,992.9
2023-01-13T03:55:45.584Z,992.7
2023-01-13T03:57:01.898Z,992.9
2023-01-13T03:58:18.172Z,992.8
2023-01-13T03:59:34.462Z,992.8
2023-01-13T04:00:49.806Z,992.9
2023-01-13T04:02:06.066Z,992.9
2023-01-13T04:03:22.365Z,992.8
2023-01-13T04:04:38.656Z,992.7
2023-01-13T04:05:54.943Z,992.9
2023-01-13T04:07:11.272Z,992.8
2023-01-13T04:08:27.541Z,992.8
2023-01-13T04:09:43.854Z,992.8
2023-01-13T04:11:00.000Z,992.8
2023-01-13T04:12:16.422Z,992.8
2023-01-13T04:13:32.710Z,992.7
2023-01-13T04:14:49.030Z,992.7
2023-01-13T04:16:05.325Z,992.7
2023-01-13T04:17:20.644Z,992.7
2023-01-13T04:18:36.900Z,992.7
2023-01-13T04:19:53.223Z,992.8
2023-01-13T04:21:09.519Z,992.7
2023-01-13T04:22:25.813Z,992.7
2023-01-13T04:23:42.085Z,992.8
2023-01-13T04:24:58.419Z,992.9
2023-01-13T04:26:14.668Z,992.9
2023-01-13T04:27:30.988Z,992.8
2023-01-13T04:28:47.299Z,992.9
2023-01-13T04:30:03.552Z,993
2023-01-13T04:31:19.849Z,993.1
2023-01-13T04:32:36.170Z,993
2023-01-13T04:33:51.440Z,993
2023-01-13T04:35:07.736Z,993.1
2023-01-13T04:36:24.077Z,993.1
2023-01-13T04:37:40.362Z,993
2023-01-13T04:38:56.659Z,993.1
2023-01-13T04:40:11.941Z,993.1
2023-01-13T04:41:28.228Z,993.2
2023-01-13T04:42:44.520Z,993.1
2023-01-13T04:44:00.826Z,993.2
2023-01-13T04:45:17.114Z,993.2
2023-01-13T04:46:33.415Z,993.2
2023-01-13T04:47:49.738Z,993.3
2023-01-13T04:49:06.024Z,993.2
2023-01-13T04:50:22.286Z,993.2
2023-01-13T04:51:38.616Z,993.2
2023-01-13T04:52:54.891Z,993.3
2023-01-13T04:54:11.171Z,993.3
2023-01-13T04:55:27.493Z,993.3
2023-01-13T04:56:42.782Z,993.4
2023-01-13T04:57:59.107Z,993.4
2023-01-13T04:59:15.368Z,993.4
2023-01-13T05:00:31.691Z,993.4
2023-01-13T05:01:47.944Z,993.4
2023-01-13T05:03:04.242Z,993.4
2023-01-13T05:04:20.539Z,993.4
2023-01-13T05:05:36.828Z,993.4
2023-01-13T05:06:53.159Z,993.4
2023-01-13T05:08:09.418Z,993.4
2023-01-13T05:09:25.714Z,993.5
2023-01-13T05:10:42.019Z,993.4
2023-01-13T05:11:58.335Z,993.4
2023-01-13T05:13:13.644Z,993.4
2023-01-13T05:14:29.907Z,993.5
2023-01-13T05:15:46.235Z,993.5
2023-01-13T05:17:02.502Z,993.5
2023-01-13T05:18:18.814Z,993.5
2023-01-13T05:19:35.085Z,993.6
2023-01-13T05:20:51.380Z,993.5
2023-01-13T05:22:07.665Z,993.6
2023-01-13T05:23:23.997Z,993.5
2023-01-13T05:24:40.268Z,993.5
2023-01-13T05:25:56.560Z,993.6
2023-01-13T05:27:12.848Z,993.4
2023-01-13T05:28:29.142Z,993.5
2023-01-13T05:29:44.490Z,993.5
2023-01-13T05:31:00.758Z,993.5
2023-01-13T05:32:17.048Z,993.4
2023-01-13T05:33:33.370Z,993.5
2023-01-13T05:34:49.660Z,993.5
2023-01-13T05:36:05.932Z,993.5
2023-01-13T05:37:22.210Z,993.4
2023-01-13T05:38:38.507Z,993.4
2023-01-13T05:39:54.804Z,993.4
2023-01-13T05:41:11.089Z,993.5
2023-01-13T05:42:27.416Z,993.4
2023-01-13T05:44:59.984Z,993.4
2023-01-13T05:46:15.320Z,993.3
2023-01-13T05:47:31.586Z,993.3
2023-01-13T05:48:47.877Z,993.3
2023-01-13T05:50:04.178Z,993.3
2023-01-13T05:51:20.456Z,993.3
2023-01-13T05:52:36.758Z,993.3
2023-01-13T05:53:53.056Z,993.3
2023-01-13T05:55:09.341Z,993.3
2023-01-13T05:56:25.670Z,993.3
2023-01-13T05:57:41.928Z,993.3
2023-01-13T05:58:58.238Z,993.3
2023-01-13T06:00:14.528Z,993.3
2023-01-13T06:01:30.808Z,993.3
2023-01-13T06:02:46.118Z,993.3
2023-01-13T06:04:02.415Z,993.2
2023-01-13T06:05:18.712Z,993.2
2023-01-13T06:06:34.998Z,993.3
2023-01-13T06:07:51.297Z,993.3
2023-01-13T06:09:07.583Z,993.2
2023-01-13T06:10:23.882Z,993.3
2023-01-13T06:11:40.191Z,993.2
2023-01-13T06:12:56.513Z,993.3
2023-01-13T06:14:12.780Z,993.3
2023-01-13T06:15:29.064Z,993.2
2023-01-13T06:16:45.389Z,993.2
2023-01-13T06:18:01.000Z,993.2
2023-01-13T06:19:16.974Z,993.2
2023-01-13T06:20:33.285Z,993.2
2023-01-13T06:21:49.575Z,993.2
2023-01-13T06:23:05.869Z,993.2
2023-01-13T06:24:22.126Z,993.2
2023-01-13T06:25:38.432Z,993.2
2023-01-13T06:26:54.735Z,993.2
2023-01-13T06:28:11.011Z,993.2
2023-01-13T06:29:27.311Z,993.2
2023-01-13T06:30:43.605Z,993.1
2023-01-13T06:31:59.898Z,993.2
2023-01-13T06:33:16.231Z,993.2
2023-01-13T06:34:32.516Z,993.2
2023-01-13T06:35:47.791Z,993.1
2023-01-13T06:37:04.094Z,993.2
2023-01-13T06:38:20.379Z,993.2
2023-01-13T06:39:36.718Z,993.1
2023-01-13T06:40:52.968Z,993.1
2023-01-13T06:42:09.265Z,993.1
2023-01-13T06:43:25.567Z,993.2
2023-01-13T06:44:41.810Z,993.1
2023-01-13T06:45:58.127Z,993.1
2023-01-13T06:47:14.358Z,993
2023-01-13T06:48:30.596Z,993
2023-01-13T06:49:46.853Z,993.1
2023-01-13T06:51:03.121Z,993.1
2023-01-13T06:52:19.488Z,993.1
2023-01-13T06:53:35.735Z,993.2
2023-01-13T06:54:51.971Z,993.1
2023-01-13T06:56:08.258Z,993
2023-01-13T06:57:24.543Z,993
2023-01-13T06:58:40.754Z,993
2023-01-13T06:59:57.032Z,993
2023-01-13T07:01:13.249Z,993
2023-01-13T07:02:29.487Z,993.2
2023-01-13T07:03:45.727Z,993
2023-01-13T07:05:01.953Z,993.1
2023-01-13T07:06:18.211Z,993.1
2023-01-13T07:07:34.434Z,993.1
2023-01-13T07:08:49.691Z,993.2
2023-01-13T07:10:05.963Z,993.2
2023-01-13T07:11:22.169Z,993.4
2023-01-13T07:12:38.414Z,993.6
2023-01-13T07:13:54.663Z,993.8
2023-01-13T07:15:10.895Z,993.9
2023-01-13T07:16:27.133Z,993.8
2023-01-13T07:17:43.385Z,993.9
2023-01-13T07:18:59.610Z,993.8
2023-01-13T07:20:15.849Z,993.9
2023-01-13T07:21:32.087Z,994.1
2023-01-13T07:22:48.360Z,994.1
2023-01-13T07:24:04.604Z,994.1
2023-01-13T07:25:19.855Z,994
2023-01-13T07:26:36.073Z,994.1
2023-01-13T07:27:52.308Z,994.1
2023-01-13T07:29:08.554Z,994.1
2023-01-13T07:30:24.816Z,994.1
2023-01-13T07:31:41.064Z,994.3
2023-01-13T07:32:57.298Z,994.3
2023-01-13T07:34:13.512Z,994.3
2023-01-13T07:35:29.741Z,994.4
2023-01-13T07:36:45.998Z,994.4
2023-01-13T07:38:02.227Z,994.4
2023-01-13T07:39:18.506Z,994.5
2023-01-13T07:40:34.749Z,994.5
2023-01-13T07:41:49.955Z,994.6
2023-01-13T07:43:06.240Z,994.6
2023-01-13T07:44:22.448Z,994.7
2023-01-13T07:45:38.711Z,994.6
2023-01-13T07:46:54.928Z,994.5
2023-01-13T07:48:11.192Z,994.6
2023-01-13T07:49:27.409Z,994.5
2023-01-13T07:50:43.634Z,994.6
2023-01-13T07:51:59.887Z,994.6
2023-01-13T07:53:16.114Z,994.7
2023-01-13T07:54:32.398Z,994.6
2023-01-13T07:55:48.628Z,994.7
2023-01-13T07:57:04.836Z,994.6
2023-01-13T07:58:20.138Z,994.5
2023-01-13T07:59:36.342Z,994.5
2023-01-13T08:00:52.603Z,994.5
2023-01-13T08:02:08.826Z,994.6
2023-01-13T08:03:25.055Z,994.7
2023-01-13T08:04:41.300Z,994.7
2023-01-13T08:05:57.532Z,994.7
2023-01-13T08:07:13.764Z,994.8
2023-01-13T08:08:30.059Z,994.8
2023-01-13T08:09:46.287Z,994.8
2023-01-13T08:11:02.490Z,994.7
2023-01-13T08:12:18.742Z,994.8
2023-01-13T08:13:34.961Z,994.8
2023-01-13T08:14:50.231Z,994.7
2023-01-13T08:16:06.469Z,994.7
2023-01-13T08:17:22.744Z,994.7
2023-01-13T08:18:38.971Z,994.6
2023-01-13T08:19:55.177Z,994.5
2023-01-13T08:21:11.414Z,994.5
2023-01-13T08:22:27.659Z,994.5
2023-01-13T08:23:43.935Z,994.5
2023-01-13T08:25:00.176Z,994.4
2023-01-13T08:26:16.421Z,994.3
2023-01-13T08:27:32.621Z,994.4
2023-01-13T08:28:48.892Z,994.3
2023-01-13T08:30:05.132Z,994.3
2023-01-13T08:31:20.380Z,994.3
2023-01-13T08:32:36.625Z,994.1
2023-01-13T08:33:52.835Z,994
2023-01-13T08:35:09.076Z,994
2023-01-13T08:36:25.355Z,994
2023-01-13T08:37:41.592Z,994
2023-01-13T08:38:57.791Z,994.1
2023-01-13T08:40:14.057Z,994.1
2023-01-13T08:41:30.296Z,994
2023-01-13T08:42:46.503Z,994.2
2023-01-13T08:44:02.751Z,994.3
2023-01-13T08:45:18.983Z,994.4
2023-01-13T08:46:35.267Z,994.5
2023-01-13T08:47:50.484Z,994.5
2023-01-13T08:49:06.714Z,994.6
2023-01-13T08:50:22.951Z,994.7
2023-01-13T08:51:39.246Z,994.8
2023-01-13T08:52:55.440Z,994.7
2023-01-13T08:54:11.677Z,994.7
2023-01-13T08:55:26.969Z,994.8
2023-01-13T08:56:43.211Z,994.8
2023-01-13T08:57:59.421Z,994.8
2023-01-13T08:59:15.656Z,994.9
2023-01-13T09:00:31.899Z,994.9
2023-01-13T09:01:48.168Z,994.9
2023-01-13T09:03:04.408Z,994.9
2023-01-13T09:04:20.613Z,994.9
2023-01-13T09:05:36.848Z,995
2023-01-13T09:06:53.089Z,994.9
2023-01-13T09:08:09.341Z,994.8
2023-01-13T09:09:25.603Z,994.8
2023-01-13T09:10:41.805Z,994.8
2023-01-13T09:11:57.097Z,994.9
2023-01-13T09:13:13.345Z,994.9
2023-01-13T09:14:29.544Z,994.9
2023-01-13T09:15:45.782Z,994.9
2023-01-13T09:17:02.070Z,994.9
2023-01-13T09:18:18.295Z,994.8
2023-01-13T09:19:34.505Z,994.8
2023-01-13T09:20:50.739Z,994.9
2023-01-13T09:22:06.980Z,994.9
2023-01-13T09:23:23.224Z,994.9
2023-01-13T09:24:39.466Z,994.8
2023-01-13T09:25:55.709Z,994.8
2023-01-13T09:27:11.937Z,994.9
2023-01-13T09:28:28.308Z,995.1
2023-01-13T09:29:44.583Z,995.1
2023-01-13T09:31:00.780Z,995.1
2023-01-13T09:32:17.069Z,995.1
2023-01-13T09:33:33.268Z,995
2023-01-13T09:34:49.550Z,995.1
2023-01-13T09:36:05.753Z,995.1
2023-01-13T09:37:21.992Z,995.1
2023-01-13T09:38:38.231Z,995
2023-01-13T09:39:54.465Z,994.9
2023-01-13T09:41:10.697Z,994.8
2023-01-13T09:42:26.947Z,994.6
2023-01-13T09:43:43.225Z,994.5
2023-01-13T09:44:58.467Z,994.5
2023-01-13T09:46:14.672Z,994.3
2023-01-13T09:47:30.949Z,994.2
2023-01-13T09:48:47.159Z,994.2
2023-01-13T09:50:03.425Z,994.1
2023-01-13T09:51:19.641Z,994.1
2023-01-13T09:52:35.913Z,994.2
2023-01-13T09:53:52.123Z,994.2
2023-01-13T09:55:08.346Z,994.3
2023-01-13T09:56:24.583Z,994.4
2023-01-13T09:57:40.828Z,994.6
2023-01-13T09:58:57.073Z,994.5
2023-01-13T10:00:13.309Z,994.6
2023-01-13T10:01:28.569Z,994.6
2023-01-13T10:02:44.836Z,994.7
2023-01-13T10:04:01.079Z,994.6
2023-01-13T10:05:17.313Z,994.7
2023-01-13T10:06:33.570Z,994.5
2023-01-13T10:07:49.798Z,994.4
2023-01-13T10:09:06.013Z,994.6
2023-01-13T10:10:22.274Z,994.6
2023-01-13T10:11:38.485Z,994.6
2023-01-13T10:12:54.750Z,994.6
2023-01-13T10:14:10.996Z,994.6
2023-01-13T10:15:27.240Z,994.5
2023-01-13T10:16:43.451Z,994.5
2023-01-13T10:17:58.727Z,994.5
2023-01-13T10:19:14.927Z,994.6
2023-01-13T10:20:31.211Z,994.6
2023-01-13T10:21:47.410Z,994.7
2023-01-13T10:23:03.648Z,994.7
2023-01-13T10:24:19.894Z,994.7
2023-01-13T10:25:36.141Z,994.7
2023-01-13T10:26:52.382Z,994.7
2023-01-13T10:28:08.605Z,994.7
2023-01-13T10:29:24.843Z,994.8
2023-01-13T10:30:41.086Z,994.7
2023-01-13T10:31:57.331Z,994.7
2023-01-13T10:33:13.601Z,994.8
2023-01-13T10:34:28.820Z,994.7
2023-01-13T10:35:45.103Z,994.7
2023-01-13T10:37:01.312Z,994.7
2023-01-13T10:38:17.535Z,994.7
2023-01-13T10:39:33.778Z,994.7
2023-01-13T10:40:50.022Z,994.7
2023-01-13T10:42:06.263Z,994.7
2023-01-13T10:43:22.496Z,994.8
2023-01-13T10:44:38.789Z,994.7
2023-01-13T10:45:55.018Z,994.8
2023-01-13T10:47:11.224Z,994.7
2023-01-13T10:48:27.492Z,994.8
2023-01-13T10:49:43.694Z,994.8
2023-01-13T10:50:58.960Z,994.7
2023-01-13T10:52:15.194Z,994.8
2023-01-13T10:53:31.429Z,994.8
2023-01-13T10:54:47.708Z,994.8
2023-01-13T10:56:03.945Z,994.9
2023-01-13T10:57:20.191Z,994.8
2023-01-13T10:58:36.426Z,994.8
2023-01-13T10:59:52.669Z,994.9
2023-01-13T11:01:08.904Z,994.8
2023-01-13T11:02:25.116Z,995
2023-01-13T11:03:41.347Z,994.9
2023-01-13T11:04:57.603Z,994.8
2023-01-13T11:06:13.841Z,994.9
2023-01-13T11:07:29.088Z,995
2023-01-13T11:08:45.367Z,994.8
2023-01-13T11:10:01.574Z,994.9
2023-01-13T11:11:17.838Z,994.9
2023-01-13T11:12:34.047Z,994.9
2023-01-13T11:13:50.289Z,995
2023-01-13T11:15:06.521Z,995
2023-01-13T11:16:22.766Z,995
2023-01-13T11:17:39.009Z,995
2023-01-13T11:18:55.288Z,995.1
2023-01-13T11:20:11.491Z,995.2
2023-01-13T11:21:27.766Z,995.2
2023-01-13T11:22:43.963Z,995.1
2023-01-13T11:23:59.231Z,995.1
2023-01-13T11:25:15.514Z,995.1
2023-01-13T11:26:31.696Z,995.1
2023-01-13T11:27:47.991Z,995
2023-01-13T11:29:04.180Z,995
2023-01-13T11:30:20.432Z,994.9
2023-01-13T11:31:36.698Z,994.9
2023-01-13T11:32:52.899Z,994.9
2023-01-13T11:34:09.134Z,994.8
2023-01-13T11:35:25.391Z,994.9
2023-01-13T11:36:41.615Z,994.9
2023-01-13T11:37:57.868Z,994.8
2023-01-13T11:39:14.152Z,994.9
2023-01-13T11:40:29.365Z,994.9
2023-01-13T11:41:45.600Z,994.9
2023-01-13T11:43:01.893Z,994.9
2023-01-13T11:44:18.095Z,994.8
2023-01-13T11:45:34.333Z,994.9
2023-01-13T11:46:50.612Z,994.8
2023-01-13T11:48:06.805Z,994.8
2023-01-13T11:49:23.088Z,994.9
2023-01-13T11:50:39.332Z,995
2023-01-13T11:51:55.561Z,994.9
2023-01-13T11:53:11.761Z,994.9
2023-01-13T11:54:27.997Z,995
2023-01-13T11:55:44.238Z,995
2023-01-13T11:56:59.535Z,995
2023-01-13T11:58:15.772Z,994.9
2023-01-13T11:59:32.017Z,995
2023-01-13T12:00:48.221Z,995
2023-01-13T12:02:04.450Z,994.9
2023-01-13T12:03:20.691Z,994.8
2023-01-13T12:04:36.971Z,994.9
2023-01-13T12:05:53.210Z,994.8
2023-01-13T12:07:09.439Z,994.9
2023-01-13T12:08:25.639Z,994.9
2023-01-13T12:09:41.885Z,994.9
2023-01-13T12:10:58.116Z,994.8
2023-01-13T12:12:14.355Z,994.8
2023-01-13T12:13:29.607Z,994.9
2023-01-13T12:14:45.855Z,994.9
2023-01-13T12:16:02.084Z,994.8
2023-01-13T12:17:18.324Z,994.9
2023-01-13T12:18:34.569Z,994.9
2023-01-13T12:19:50.855Z,995
2023-01-13T12:21:07.082Z,994.9
2023-01-13T12:22:23.326Z,995
2023-01-13T12:23:39.565Z,994.9
2023-01-13T12:24:55.795Z,994.9
2023-01-13T12:26:11.995Z,994.9
2023-01-13T12:27:28.244Z,994.8
2023-01-13T12:28:44.514Z,994.9
2023-01-13T12:29:59.736Z,994.9
2023-01-13T12:31:15.965Z,994.9
2023-01-13T12:32:32.206Z,995
2023-01-13T12:33:48.444Z,994.9
2023-01-13T12:35:04.683Z,994.9
2023-01-13T12:36:20.979Z,994.9
2023-01-13T12:37:37.187Z,994.9
2023-01-13T12:38:53.411Z,994.8
2023-01-13T12:40:09.707Z,994.8
2023-01-13T12:41:25.895Z,994.7
2023-01-13T12:42:42.168Z,994.8
2023-01-13T12:43:58.412Z,994.8
2023-01-13T12:45:14.664Z,994.8
2023-01-13T12:46:29.874Z,994.8
2023-01-13T12:47:46.113Z,994.9
2023-01-13T12:49:02.354Z,994.9
2023-01-13T12:50:18.594Z,994.9
2023-01-13T12:51:34.819Z,994.8
2023-01-13T12:52:51.100Z,994.8
2023-01-13T12:54:07.337Z,994.8
2023-01-13T12:55:23.535Z,994.8
2023-01-13T12:56:39.825Z,994.8
2023-01-13T12:57:56.056Z,994.8
2023-01-13T12:59:12.293Z,994.9
2023-01-13T13:00:28.490Z,994.8
2023-01-13T13:01:44.741Z,994.8
2023-01-13T13:02:59.984Z,994.7
2023-01-13T13:04:16.234Z,994.7
2023-01-13T13:05:32.463Z,994.7
2023-01-13T13:06:48.709Z,994.8
2023-01-13T13:08:04.944Z,994.7
2023-01-13T13:09:21.192Z,994.8
2023-01-13T13:10:37.556Z,994.7
2023-01-13T13:11:53.784Z,994.8
2023-01-13T13:13:10.023Z,994.8
2023-01-13T13:14:26.258Z,994.7
2023-01-13T13:15:42.503Z,994.8
2023-01-13T13:16:58.743Z,994.8
2023-01-13T13:18:15.019Z,994.8
2023-01-13T13:19:31.224Z,994.8
2023-01-13T13:20:47.457Z,994.8
2023-01-13T13:22:03.703Z,994.8
2023-01-13T13:23:19.982Z,994.8
2023-01-13T13:24:36.191Z,994.8
2023-01-13T13:25:52.418Z,994.8
2023-01-13T13:27:07.675Z,994.8
2023-01-13T13:28:23.913Z,994.8
2023-01-13T13:29:40.169Z,994.9
2023-01-13T13:30:56.394Z,994.8
2023-01-13T13:32:12.629Z,994.9
2023-01-13T13:33:28.914Z,995
2023-01-13T13:34:45.111Z,995
2023-01-13T13:36:01.353Z,995
2023-01-13T13:37:17.601Z,995
2023-01-13T13:38:33.887Z,995
2023-01-13T13:39:50.081Z,995
2023-01-13T13:41:06.319Z,995.1
2023-01-13T13:42:22.564Z,995.1
2023-01-13T13:43:37.813Z,995.2
2023-01-13T13:44:54.110Z,995.1
2023-01-13T13:46:10.294Z,995.1
2023-01-13T13:47:26.539Z,995.1
2023-01-13T13:48:42.774Z,995.1
2023-01-13T13:49:59.028Z,995.1
2023-01-13T13:51:15.260Z,995.2
2023-01-13T13:52:31.510Z,995.1
2023-01-13T13:53:47.741Z,995.1
2023-01-13T13:55:03.989Z,995.2
2023-01-13T13:56:20.239Z,995.2
2023-01-13T13:57:36.454Z,995.2
2023-01-13T13:58:52.718Z,995
2023-01-13T14:00:07.967Z,995.1
2023-01-13T14:01:24.194Z,995.1
2023-01-13T14:02:40.447Z,995.1
2023-01-13T14:03:56.668Z,995.2
2023-01-13T14:05:12.911Z,995.1
2023-01-13T14:06:29.160Z,995.1
2023-01-13T14:07:45.423Z,995.1
2023-01-13T14:09:01.647Z,995.1
2023-01-13T14:10:17.884Z,995
2023-01-13T14:11:34.115Z,995
2023-01-13T14:12:50.361Z,994.9
2023-01-13T14:14:06.609Z,994.9
2023-01-13T14:15:22.838Z,995
2023-01-13T14:16:38.109Z,994.8
2023-01-13T14:17:54.332Z,994.9
2023-01-13T14:19:10.579Z,995
2023-01-13T14:20:26.814Z,995
2023-01-13T14:21:43.075Z,995
2023-01-13T14:22:59.309Z,995.1
2023-01-13T14:24:15.537Z,995
2023-01-13T14:25:31.780Z,994.9
2023-01-13T14:26:48.018Z,995.1
2023-01-13T14:28:04.253Z,994.9
2023-01-13T14:29:20.494Z,995
2023-01-13T14:30:36.734Z,995
2023-01-13T14:31:52.961Z,995.1
2023-01-13T14:33:09.199Z,995
2023-01-13T14:34:24.455Z,995
2023-01-13T14:35:40.696Z,995
2023-01-13T14:36:56.950Z,994.9
2023-01-13T14:38:13.181Z,994.9
2023-01-13T14:39:29.432Z,994.9
2023-01-13T14:40:45.655Z,995
2023-01-13T14:42:01.902Z,995
2023-01-13T14:43:18.134Z,995
2023-01-13T14:44:34.385Z,995.1
2023-01-13T14:45:50.616Z,994.9
2023-01-13T14:47:06.874Z,995
2023-01-13T14:48:23.096Z,995.1
2023-01-13T14:49:39.338Z,995.1
2023-01-13T14:50:54.593Z,995.1
2023-01-13T14:52:10.842Z,995.1
2023-01-13T14:53:27.070Z,995.1
2023-01-13T14:54:43.321Z,995.1
2023-01-13T14:55:59.565Z,995.1
2023-01-13T14:57:15.809Z,995.3
2023-01-13T14:58:32.042Z,995.2
2023-01-13T14:59:48.296Z,995.2
2023-01-13T15:01:04.515Z,995.2
2023-01-13T15:02:20.765Z,995.2
2023-01-13T15:03:36.996Z,995.2
2023-01-13T15:04:53.247Z,995.2
2023-01-13T15:06:09.490Z,995.3
2023-01-13T15:07:25.725Z,995.2
2023-01-13T15:08:40.982Z,995.2
2023-01-13T15:09:57.209Z,995.3
2023-01-13T15:11:13.454Z,995.4
2023-01-13T15:12:29.711Z,995.4
2023-01-13T15:13:45.926Z,995.5
2023-01-13T15:15:02.176Z,995.5
2023-01-13T15:16:18.418Z,995.5
2023-01-13T15:17:34.650Z,995.5
2023-01-13T15:18:50.896Z,995.5
2023-01-13T15:20:07.141Z,995.5
2023-01-13T15:21:23.368Z,995.6
2023-01-13T15:22:39.613Z,995.5
2023-01-13T15:23:55.849Z,995.5
2023-01-13T15:25:11.112Z,995.5
2023-01-13T15:26:27.338Z,995.5
2023-01-13T15:27:43.598Z,995.6
2023-01-13T15:28:59.832Z,995.6
2023-01-13T15:30:16.084Z,995.7
2023-01-13T15:31:32.313Z,995.7
2023-01-13T15:32:48.553Z,995.7
2023-01-13T15:34:04.793Z,995.8
2023-01-13T15:35:21.019Z,995.7
2023-01-13T15:36:37.276Z,995.7
2023-01-13T15:37:53.499Z,995.7
2023-01-13T15:39:09.750Z,995.7
2023-01-13T15:40:25.983Z,995.8
2023-01-13T15:41:41.244Z,995.8
2023-01-13T15:42:57.484Z,995.8
2023-01-13T15:44:13.711Z,995.8
2023-01-13T15:45:29.955Z,995.9
2023-01-13T15:46:46.196Z,995.9
2023-01-13T15:48:02.448Z,995.9
2023-01-13T15:49:18.683Z,995.9
2023-01-13T15:50:34.914Z,996
2023-01-13T15:51:51.148Z,996
2023-01-13T15:53:07.395Z,996
2023-01-13T15:54:23.642Z,996.1
2023-01-13T15:55:39.878Z,996.1
2023-01-13T15:56:56.123Z,996.1
2023-01-13T15:58:11.374Z,996.1
2023-01-13T15:59:27.603Z,996.1
2023-01-13T16:00:43.912Z,996.1
2023-01-13T16:02:00.148Z,996.1
2023-01-13T16:03:16.379Z,996.1
2023-01-13T16:04:32.668Z,996.2
2023-01-13T16:05:48.969Z,996.2
2023-01-13T16:07:05.273Z,996.3
2023-01-13T16:08:21.571Z,996.3
2023-01-13T16:09:37.857Z,996.3
2023-01-13T16:10:54.142Z,996.3
2023-01-13T16:12:10.440Z,996.4
2023-01-13T16:13:26.721Z,996.5
2023-01-13T16:14:42.046Z,996.5
2023-01-13T16:15:58.335Z,996.5
2023-01-13T16:17:14.620Z,996.6
2023-01-13T16:18:30.910Z,996.6
2023-01-13T16:19:47.217Z,996.5
2023-01-13T16:21:03.500Z,996.6
2023-01-13T16:22:19.803Z,996.6
2023-01-13T16:23:36.105Z,996.6
2023-01-13T16:24:52.378Z,996.5
2023-01-13T16:26:08.697Z,996.6
2023-01-13T16:27:24.971Z,996.6
2023-01-13T16:28:41.281Z,996.5
2023-01-13T16:29:57.559Z,996.5
2023-01-13T16:31:12.882Z,996.5